createdAt,value
2023-01-31T00:00:20.028Z,1.90
2023-01-31T00:05:18.622Z,1.50
2023-01-31T00:10:17.488Z,2.10
2023-01-31T00:15:17.934Z,1.60
2023-01-31T00:20:15.836Z,1.70
2023-01-31T00:25:15.962Z,1.90
2023-01-31T00:30:16.399Z,1.90
2023-01-31T00:35:13.538Z,2.10
2023-01-31T00:40:13.674Z,2.90
2023-01-31T00:45:11.797Z,2.40
2023-01-31T00:50:11.997Z,2.50
2023-01-31T00:55:10.184Z,2.70
2023-01-31T01:00:09.643Z,2.80
2023-01-31T01:05:10.803Z,2.60
2023-01-31T01:10:08.933Z,2.60
2023-01-31T01:15:07.267Z,2.90
2023-01-31T01:20:07.435Z,2.90
2023-01-31T01:25:05.614Z,3.00
2023-01-31T01:30:04.811Z,2.90
2023-01-31T01:35:05.129Z,2.60
2023-01-31T01:40:03.462Z,3.00
2023-01-31T01:45:02.551Z,3.20
2023-01-31T01:50:01.757Z,2.80
2023-01-31T01:55:01.096Z,3.30
2023-01-31T02:00:01.283Z,3.30
2023-01-31T02:05:00.761Z,2.80
2023-01-31T02:09:59.768Z,2.80
2023-01-31T02:15:00.005Z,3.40
2023-01-31T02:19:57.301Z,3.00
2023-01-31T02:24:56.480Z,2.80
2023-01-31T02:29:57.739Z,3.10
2023-01-31T02:34:56.075Z,3.20
2023-01-31T02:39:54.329Z,3.30
2023-01-31T02:44:55.541Z,2.80
2023-01-31T02:49:52.716Z,3.10
2023-01-31T02:54:51.953Z,2.90
2023-01-31T02:59:52.322Z,3.00
2023-01-31T03:04:50.327Z,3.20
2023-01-31T03:09:49.533Z,3.30
2023-01-31T03:14:48.781Z,2.80
2023-01-31T03:19:49.002Z,2.90
2023-01-31T03:24:47.421Z,3.10
2023-01-31T03:29:47.466Z,3.20
2023-01-31T03:34:46.673Z,3.00
2023-01-31T03:39:47.956Z,3.00
2023-01-31T03:44:45.206Z,3.00
2023-01-31T03:49:44.523Z,3.00
2023-01-31T03:54:43.770Z,3.40
2023-01-31T03:59:44.035Z,3.10
2023-01-31T04:04:42.260Z,2.50
2023-01-31T04:09:40.478Z,2.80
2023-01-31T04:14:40.671Z,2.60
2023-01-31T04:19:40.927Z,3.20
2023-01-31T04:24:39.155Z,2.80
2023-01-31T04:29:37.324Z,2.50
2023-01-31T04:34:35.644Z,2.60
2023-01-31T04:39:35.663Z,2.40
2023-01-31T04:44:34.840Z,2.90
2023-01-31T04:49:36.588Z,2.70
2023-01-31T04:54:35.361Z,2.90
2023-01-31T04:59:32.592Z,2.70
2023-01-31T05:04:31.777Z,2.90
2023-01-31T05:09:31.545Z,3.30
2023-01-31T05:14:30.180Z,2.80
2023-01-31T05:19:30.549Z,2.70
2023-01-31T05:24:29.516Z,2.60
2023-01-31T05:29:28.701Z,2.40
2023-01-31T05:34:26.939Z,3.00
2023-01-31T05:39:27.154Z,2.60
2023-01-31T05:44:26.364Z,2.80
2023-01-31T05:49:26.643Z,2.60
2023-01-31T05:54:23.844Z,2.50
2023-01-31T05:59:24.045Z,2.00
2023-01-31T06:04:23.225Z,2.60
2023-01-31T06:09:21.415Z,2.70
2023-01-31T06:14:21.834Z,2.90
2023-01-31T06:19:19.828Z,2.30
2023-01-31T06:24:21.040Z,2.20
2023-01-31T06:29:18.239Z,2.80
2023-01-31T06:34:17.418Z,2.40
2023-01-31T06:39:16.635Z,3.80
2023-01-31T06:44:15.822Z,2.80
2023-01-31T06:49:15.047Z,3.40
2023-01-31T06:54:14.189Z,5.00
2023-01-31T06:59:15.553Z,3.10
2023-01-31T07:04:11.665Z,2.50
2023-01-31T07:09:11.994Z,2.70
2023-01-31T07:14:12.300Z,5.20
2023-01-31T07:19:10.651Z,5.50
2023-01-31T07:24:07.851Z,3.40
2023-01-31T07:29:10.103Z,3.70
2023-01-31T07:34:08.207Z,3.10
2023-01-31T07:39:07.533Z,3.30
2023-01-31T07:44:06.843Z,3.60
2023-01-31T07:49:06.154Z,3.30
2023-01-31T07:54:06.610Z,3.40
2023-01-31T07:59:03.282Z,3.00
2023-01-31T08:04:19.857Z,2.80
2023-01-31T08:09:04.228Z,2.70
2023-01-31T08:14:02.809Z,3.70
2023-01-31T08:19:00.692Z,3.80
2023-01-31T08:24:01.056Z,3.50
2023-01-31T08:29:00.203Z,3.80
2023-01-31T08:33:59.342Z,4.30
2023-01-31T08:38:58.781Z,4.10
2023-01-31T08:43:59.308Z,4.60
2023-01-31T08:48:59.071Z,4.50
2023-01-31T08:53:56.397Z,4.80
2023-01-31T08:58:56.719Z,5.40
2023-01-31T09:03:55.039Z,4.80
2023-01-31T09:08:55.674Z,5.30
2023-01-31T09:13:54.554Z,5.20
2023-01-31T09:18:53.833Z,4.70
2023-01-31T09:23:53.096Z,4.30
2023-01-31T09:28:51.380Z,5.10
2023-01-31T09:33:50.697Z,5.00
2023-01-31T09:38:50.992Z,4.10
2023-01-31T09:43:49.298Z,3.90
2023-01-31T09:48:48.593Z,3.80
2023-01-31T09:53:48.883Z,3.70
2023-01-31T09:58:48.194Z,4.20
2023-01-31T10:03:48.530Z,3.90
2023-01-31T10:08:46.087Z,3.40
2023-01-31T10:13:45.790Z,3.70
2023-01-31T10:18:44.123Z,3.30
2023-01-31T10:23:43.258Z,3.20
2023-01-31T10:28:42.582Z,3.10
2023-01-31T10:33:42.176Z,3.50
2023-01-31T10:38:41.146Z,4.00
2023-01-31T10:43:41.256Z,3.20
2023-01-31T10:48:43.951Z,3.00
2023-01-31T10:53:38.717Z,2.70
2023-01-31T10:58:40.067Z,3.00
2023-01-31T11:03:37.170Z,3.20
2023-01-31T11:08:38.847Z,3.90
2023-01-31T11:13:37.743Z,2.80
2023-01-31T11:18:35.053Z,2.10
2023-01-31T11:23:35.390Z,2.30
2023-01-31T11:28:34.678Z,2.60
2023-01-31T11:33:33.002Z,2.20
2023-01-31T11:38:34.320Z,2.40
2023-01-31T11:43:31.659Z,2.50
2023-01-31T11:48:31.777Z,2.70
2023-01-31T11:53:30.483Z,2.10
2023-01-31T11:58:30.495Z,2.10
2023-01-31T12:03:28.638Z,2.60
2023-01-31T12:08:29.125Z,2.30
2023-01-31T12:13:27.152Z,1.60
2023-01-31T12:18:28.605Z,2.20
2023-01-31T12:23:25.527Z,1.90
2023-01-31T12:28:29.334Z,2.20
2023-01-31T12:33:26.055Z,1.80
2023-01-31T12:38:22.374Z,1.40
2023-01-31T12:43:22.565Z,2.10
2023-01-31T12:48:21.711Z,1.90
2023-01-31T12:53:22.075Z,1.60
2023-01-31T12:58:21.218Z,1.00
2023-01-31T13:03:19.342Z,1.60
2023-01-31T13:08:18.485Z,1.60
2023-01-31T13:13:18.576Z,2.00
2023-01-31T13:18:16.876Z,1.40
2023-01-31T13:23:16.178Z,1.30
2023-01-31T13:28:15.503Z,1.50
2023-01-31T13:33:17.358Z,2.20
2023-01-31T13:38:14.077Z,2.20
2023-01-31T13:43:13.427Z,1.90
2023-01-31T13:48:13.558Z,2.40
2023-01-31T13:53:12.879Z,1.20
2023-01-31T13:58:11.180Z,1.20
2023-01-31T14:03:10.557Z,2.10
2023-01-31T14:08:09.685Z,1.80
2023-01-31T14:13:08.996Z,3.10
2023-01-31T14:18:08.309Z,2.00
2023-01-31T14:23:08.640Z,2.10
2023-01-31T14:28:07.933Z,1.70
2023-01-31T14:33:06.275Z,2.00
2023-01-31T14:38:05.604Z,2.80
2023-01-31T14:43:04.784Z,1.70
2023-01-31T14:48:03.929Z,2.40
2023-01-31T14:53:02.103Z,2.50
2023-01-31T14:58:02.268Z,1.30
2023-01-31T15:03:02.497Z,2.00
2023-01-31T15:08:01.753Z,1.20
2023-01-31T18:56:12.020Z,222.70
2023-01-31T19:01:08.785Z,226.10
2023-01-31T19:06:07.013Z,180.30
2023-01-31T19:11:06.229Z,158.00
2023-01-31T19:16:06.421Z,141.90
2023-01-31T19:21:04.662Z,146.60
2023-01-31T19:26:03.970Z,370.60
2023-01-31T19:31:03.576Z,344.60
2023-01-31T19:36:02.439Z,289.80
2023-01-31T19:41:00.645Z,367.90
2023-01-31T19:46:00.901Z,423.60
2023-01-31T19:51:01.175Z,377.70
2023-01-31T19:56:01.093Z,433.10
2023-01-31T20:00:58.687Z,505.20
2023-01-31T20:05:56.873Z,449.80
2023-01-31T20:10:57.107Z,409.20
2023-01-31T20:15:56.943Z,358.30
2023-01-31T20:20:57.034Z,323.30
2023-01-31T20:25:54.624Z,288.50
2023-01-31T20:30:53.773Z,292.20
2023-01-31T20:35:53.266Z,422.00
2023-01-31T20:40:52.458Z,363.50
2023-01-31T20:45:51.694Z,302.00
2023-01-31T20:50:50.959Z,269.50
2023-01-31T20:55:53.937Z,250.20
2023-01-31T21:00:49.353Z,275.80
2023-01-31T21:05:48.437Z,389.30
2023-01-31T21:10:47.533Z,332.00
2023-01-31T21:15:47.071Z,418.90
2023-01-31T21:20:46.170Z,498.50
2023-01-31T21:25:43.130Z,428.60
2023-01-31T21:30:44.535Z,378.30
2023-01-31T21:35:43.558Z,342.50
2023-01-31T21:40:43.889Z,305.10
2023-01-31T21:45:43.502Z,341.30
2023-01-31T21:50:42.504Z,427.50
2023-01-31T21:55:41.610Z,356.70
2023-01-31T22:00:39.926Z,327.40
2023-01-31T22:05:40.334Z,310.00
2023-01-31T22:10:39.450Z,466.80
2023-01-31T22:15:37.786Z,381.70
2023-01-31T22:20:37.934Z,344.60
2023-01-31T22:25:36.238Z,300.30
2023-01-31T22:30:36.540Z,271.90
2023-01-31T22:35:34.842Z,240.00
2023-01-31T22:40:34.142Z,212.90
2023-01-31T22:45:33.446Z,275.60
2023-01-31T22:50:32.793Z,364.60
2023-01-31T22:55:32.136Z,288.10
2023-01-31T23:00:32.469Z,282.50
2023-01-31T23:05:31.660Z,260.50
2023-01-31T23:10:30.866Z,234.00
2023-01-31T23:15:28.987Z,222.90
2023-01-31T23:20:28.436Z,208.80
2023-01-31T23:25:27.619Z,192.30
2023-01-31T23:30:26.757Z,191.60
2023-01-31T23:35:27.109Z,180.40
2023-01-31T23:40:25.232Z,170.70
2023-01-31T23:45:26.545Z,157.40
2023-01-31T23:50:24.839Z,149.60
2023-01-31T23:55:23.161Z,138.70
